VIR8Y KLAX-EGLL
Flight info
| Callsign | VIR8Y |
|---|---|
| Flight time | N/A |
| Altitude | 35000 |
| Route | DOTSS2 CNERY DCT BLH J169 KOFFA J65 PXR DCT KA21Q DCT KA27U DCT TCC DCT MMB DCT SPI DCT GIJ/N0496F370 DCT HOCKE DCT ROSVO DCT ANCER N749A LOMSI/M084F390 DCT 55N050W 56N040W 57N030W 57N020W DCT PIKIL DCT SOVED/N0491F390 DCT LUTOV DCT KELLY L10 WAL UY53 NUGRA |
| Aircraft | A35K/H-SDE2E3GHIJ3J4J5LM1ORWXY/LB1D1 |
Departure
| Time | 2026-05-07 03:59 |
|---|---|
| Airport | Los Angeles International Airport (KLAX) |
Arrival
| Time | N/A |
|---|---|
| Airport | London Heathrow Airport (EGLL) |
| Time | Latitude | Longitude | Altitude | Speed | Heading |
|---|---|---|---|---|---|
| 2026-05-07 02:56 | 33.94541 | -118.41005 | 99 ft | 0 kts | 263° |
| 2026-05-07 03:46 | 33.94542 | -118.40995 | 99 ft | 4 kts | 263° |
| 2026-05-07 03:47 | 33.94545 | -118.40969 | 101 ft | 4 kts | 264° |
| 2026-05-07 03:47 | 33.94543 | -118.40938 | 96 ft | 4 kts | 297° |
| 2026-05-07 03:47 | 33.94526 | -118.40915 | 98 ft | 4 kts | 330° |
| 2026-05-07 03:47 | 33.94507 | -118.40904 | 99 ft | 0 kts | 337° |
| 2026-05-07 03:48 | 33.94524 | -118.40915 | 98 ft | 4 kts | 347° |
| 2026-05-07 03:48 | 33.94529 | -118.40915 | 97 ft | 0 kts | 354° |
| 2026-05-07 03:48 | 33.94529 | -118.40914 | 97 ft | 0 kts | 354° |
| 2026-05-07 03:49 | 33.94529 | -118.40913 | 98 ft | 0 kts | 354° |
| 2026-05-07 03:49 | 33.94530 | -118.40913 | 98 ft | 0 kts | 354° |
| 2026-05-07 03:52 | 33.94540 | -118.40914 | 97 ft | 5 kts | 354° |
| 2026-05-07 03:52 | 33.94584 | -118.40904 | 100 ft | 8 kts | 15° |
| 2026-05-07 03:53 | 33.94655 | -118.40904 | 100 ft | 11 kts | 354° |
| 2026-05-07 03:53 | 33.94721 | -118.40909 | 100 ft | 6 kts | 7° |
| 2026-05-07 03:53 | 33.94771 | -118.40889 | 100 ft | 9 kts | 15° |
| 2026-05-07 03:53 | 33.94823 | -118.40859 | 99 ft | 4 kts | 51° |
| 2026-05-07 03:54 | 33.94826 | -118.40854 | 102 ft | 1 kts | 56° |
| 2026-05-07 03:54 | 33.94831 | -118.40838 | 102 ft | 3 kts | 68° |
| 2026-05-07 03:54 | 33.94840 | -118.40800 | 102 ft | 6 kts | 78° |
| 2026-05-07 03:54 | 33.94845 | -118.40764 | 100 ft | 7 kts | 81° |
| 2026-05-07 03:55 | 33.94853 | -118.40697 | 101 ft | 9 kts | 83° |
| 2026-05-07 03:55 | 33.94866 | -118.40584 | 103 ft | 12 kts | 82° |
| 2026-05-07 03:55 | 33.94875 | -118.40480 | 103 ft | 14 kts | 83° |
| 2026-05-07 03:55 | 33.94888 | -118.40359 | 102 ft | 15 kts | 83° |
| 2026-05-07 03:56 | 33.94902 | -118.40225 | 102 ft | 16 kts | 83° |
| 2026-05-07 03:56 | 33.94915 | -118.40089 | 102 ft | 17 kts | 83° |
| 2026-05-07 03:56 | 33.94930 | -118.39964 | 99 ft | 8 kts | 73° |
| 2026-05-07 03:56 | 33.94943 | -118.39937 | 101 ft | 1 kts | 52° |
| 2026-05-07 03:57 | 33.94947 | -118.39933 | 100 ft | 1 kts | 46° |
| 2026-05-07 03:57 | 33.94958 | -118.39924 | 103 ft | 3 kts | 28° |
| 2026-05-07 03:57 | 33.94996 | -118.39916 | 100 ft | 7 kts | 1° |
| 2026-05-07 03:57 | 33.95033 | -118.39935 | 100 ft | 6 kts | 308° |
| 2026-05-07 03:58 | 33.95038 | -118.39997 | 103 ft | 9 kts | 261° |
| 2026-05-07 03:58 | 33.95028 | -118.40094 | 102 ft | 23 kts | 263° |
| 2026-05-07 03:58 | 33.94981 | -118.40543 | 103 ft | 85 kts | 263° |
| 2026-05-07 03:58 | 33.94886 | -118.41475 | 103 ft | 138 kts | 263° |
| 2026-05-07 03:59 | 33.94743 | -118.42693 | 517 ft | 145 kts | 261° |
| 2026-05-07 03:59 | 33.94569 | -118.43893 | 1013 ft | 151 kts | 262° |
| 2026-05-07 03:59 | 33.94412 | -118.45166 | 1438 ft | 156 kts | 264° |
| 2026-05-07 03:59 | 33.94289 | -118.46511 | 1745 ft | 167 kts | 266° |
| 2026-05-07 04:00 | 33.94184 | -118.47950 | 2074 ft | 178 kts | 267° |
| 2026-05-07 04:00 | 33.94145 | -118.49508 | 2334 ft | 195 kts | 271° |
| 2026-05-07 04:00 | 33.94150 | -118.51214 | 2577 ft | 213 kts | 270° |
| 2026-05-07 04:00 | 33.94068 | -118.53070 | 2871 ft | 229 kts | 266° |
| 2026-05-07 04:01 | 33.93919 | -118.55045 | 3200 ft | 246 kts | 265° |
| 2026-05-07 04:01 | 33.93752 | -118.57148 | 3571 ft | 258 kts | 265° |
| 2026-05-07 04:01 | 33.93575 | -118.59311 | 4166 ft | 261 kts | 265° |
| 2026-05-07 04:01 | 33.93133 | -118.61429 | 4659 ft | 270 kts | 246° |
| 2026-05-07 04:02 | 33.91959 | -118.63204 | 5194 ft | 278 kts | 218° |
| 2026-05-07 04:02 | 33.90176 | -118.64127 | 5706 ft | 285 kts | 188° |
| 2026-05-07 04:02 | 33.88182 | -118.64160 | 6289 ft | 289 kts | 176° |
| 2026-05-07 04:02 | 33.86167 | -118.63981 | 6871 ft | 292 kts | 175° |
| 2026-05-07 04:03 | 33.84153 | -118.63583 | 7461 ft | 294 kts | 159° |
| 2026-05-07 04:03 | 33.82357 | -118.62459 | 8143 ft | 291 kts | 143° |
| 2026-05-07 04:03 | 33.80679 | -118.61083 | 8880 ft | 292 kts | 142° |
| 2026-05-07 04:03 | 33.79009 | -118.59693 | 9598 ft | 293 kts | 141° |
| 2026-05-07 04:04 | 33.77344 | -118.58319 | 10240 ft | 297 kts | 141° |
| 2026-05-07 04:04 | 33.75612 | -118.56895 | 10704 ft | 305 kts | 141° |
| 2026-05-07 04:04 | 33.73841 | -118.55450 | 11273 ft | 310 kts | 142° |
| 2026-05-07 04:04 | 33.72049 | -118.53991 | 11898 ft | 313 kts | 142° |
| 2026-05-07 04:05 | 33.70355 | -118.52361 | 12505 ft | 312 kts | 129° |
| 2026-05-07 04:05 | 33.69162 | -118.50225 | 13126 ft | 308 kts | 110° |
| 2026-05-07 04:05 | 33.68393 | -118.47822 | 13768 ft | 309 kts | 106° |
| 2026-05-07 04:05 | 33.67687 | -118.45370 | 14332 ft | 313 kts | 106° |
| 2026-05-07 04:06 | 33.66972 | -118.42896 | 14703 ft | 324 kts | 106° |
| 2026-05-07 04:06 | 33.66213 | -118.40294 | 14956 ft | 338 kts | 107° |
| 2026-05-07 04:06 | 33.65415 | -118.37584 | 15216 ft | 351 kts | 107° |
| 2026-05-07 04:06 | 33.64680 | -118.34748 | 15459 ft | 361 kts | 99° |
| 2026-05-07 04:07 | 33.64418 | -118.31723 | 15694 ft | 369 kts | 89° |
| 2026-05-07 04:07 | 33.64411 | -118.28598 | 15922 ft | 379 kts | 87° |
| 2026-05-07 04:07 | 33.64431 | -118.25391 | 16136 ft | 390 kts | 88° |
| 2026-05-07 04:07 | 33.64445 | -118.22101 | 16362 ft | 399 kts | 88° |
| 2026-05-07 04:08 | 33.64452 | -118.18750 | 16702 ft | 404 kts | 88° |
| 2026-05-07 04:08 | 33.64455 | -118.15413 | 17098 ft | 407 kts | 88° |
| 2026-05-07 04:08 | 33.64456 | -118.11997 | 17523 ft | 411 kts | 88° |
| 2026-05-07 04:08 | 33.64455 | -118.08557 | 17951 ft | 414 kts | 88° |
| 2026-05-07 04:09 | 33.64453 | -118.05098 | 18410 ft | 416 kts | 88° |
| 2026-05-07 04:09 | 33.64449 | -118.01632 | 18866 ft | 416 kts | 88° |
| 2026-05-07 04:09 | 33.64444 | -117.98143 | 19262 ft | 419 kts | 88° |
| 2026-05-07 04:09 | 33.64439 | -117.94637 | 19660 ft | 422 kts | 88° |
| 2026-05-07 04:10 | 33.64432 | -117.91107 | 20080 ft | 424 kts | 87° |
| 2026-05-07 04:10 | 33.64424 | -117.87563 | 20494 ft | 426 kts | 87° |
| 2026-05-07 04:10 | 33.64415 | -117.84045 | 20899 ft | 429 kts | 87° |
| 2026-05-07 04:10 | 33.64303 | -117.80458 | 21308 ft | 433 kts | 93° |
| 2026-05-07 04:11 | 33.63755 | -117.76874 | 21723 ft | 439 kts | 101° |
| 2026-05-07 04:11 | 33.62917 | -117.73334 | 22145 ft | 443 kts | 103° |
| 2026-05-07 04:11 | 33.62031 | -117.69785 | 22541 ft | 446 kts | 103° |
| 2026-05-07 04:11 | 33.61141 | -117.66212 | 22962 ft | 449 kts | 103° |
| 2026-05-07 04:12 | 33.60246 | -117.62612 | 23412 ft | 451 kts | 103° |
| 2026-05-07 04:12 | 33.59349 | -117.58992 | 23794 ft | 454 kts | 103° |
| 2026-05-07 04:12 | 33.58449 | -117.55362 | 24169 ft | 457 kts | 103° |
| 2026-05-07 04:12 | 33.57552 | -117.51745 | 24553 ft | 459 kts | 103° |
| 2026-05-07 04:13 | 33.56639 | -117.48065 | 24948 ft | 461 kts | 103° |
| 2026-05-07 04:13 | 33.55722 | -117.44379 | 25421 ft | 462 kts | 103° |
| 2026-05-07 04:13 | 33.54802 | -117.40679 | 25843 ft | 464 kts | 103° |
| 2026-05-07 04:13 | 33.53874 | -117.36956 | 26223 ft | 467 kts | 102° |
| 2026-05-07 04:14 | 33.52944 | -117.33226 | 26627 ft | 469 kts | 102° |
| 2026-05-07 04:14 | 33.52003 | -117.29459 | 27028 ft | 472 kts | 102° |
| 2026-05-07 04:14 | 33.51098 | -117.25676 | 27397 ft | 473 kts | 99° |
| 2026-05-07 04:14 | 33.50530 | -117.21815 | 27750 ft | 470 kts | 91° |
| 2026-05-07 04:15 | 33.50375 | -117.17957 | 28108 ft | 470 kts | 87° |
| 2026-05-07 04:15 | 33.50328 | -117.14044 | 28531 ft | 471 kts | 87° |
| 2026-05-07 04:15 | 33.50286 | -117.10113 | 28898 ft | 472 kts | 87° |
| 2026-05-07 04:15 | 33.50240 | -117.06173 | 29204 ft | 475 kts | 87° |
| 2026-05-07 04:16 | 33.50189 | -117.02223 | 29673 ft | 474 kts | 87° |
| 2026-05-07 04:16 | 33.50134 | -116.98281 | 30171 ft | 472 kts | 87° |
| 2026-05-07 04:16 | 33.50077 | -116.94361 | 30536 ft | 471 kts | 87° |
| 2026-05-07 04:16 | 33.50019 | -116.90438 | 30915 ft | 470 kts | 87° |
| 2026-05-07 04:17 | 33.49959 | -116.86528 | 31308 ft | 468 kts | 87° |
| 2026-05-07 04:17 | 33.49899 | -116.82699 | 31762 ft | 465 kts | 87° |
| 2026-05-07 04:17 | 33.49838 | -116.78838 | 32156 ft | 463 kts | 87° |
| 2026-05-07 04:17 | 33.49776 | -116.74989 | 32476 ft | 462 kts | 87° |
| 2026-05-07 04:18 | 33.49713 | -116.71141 | 32785 ft | 462 kts | 87° |
| 2026-05-07 04:18 | 33.49649 | -116.67295 | 33110 ft | 461 kts | 87° |
| 2026-05-07 04:18 | 33.49583 | -116.63466 | 33433 ft | 460 kts | 87° |
| 2026-05-07 04:18 | 33.49517 | -116.59638 | 33726 ft | 459 kts | 87° |
| 2026-05-07 04:19 | 33.49450 | -116.55877 | 34083 ft | 457 kts | 87° |
| 2026-05-07 04:19 | 33.49380 | -116.52077 | 34390 ft | 455 kts | 86° |
| 2026-05-07 04:19 | 33.49311 | -116.48286 | 34494 ft | 456 kts | 87° |
| 2026-05-07 04:19 | 33.49241 | -116.44481 | 34704 ft | 456 kts | 87° |
| 2026-05-07 04:20 | 33.49172 | -116.40684 | 34860 ft | 457 kts | 86° |
| 2026-05-07 04:20 | 33.49121 | -116.36873 | 34963 ft | 457 kts | 86° |
| 2026-05-07 04:20 | 33.49070 | -116.33064 | 35008 ft | 460 kts | 86° |
| 2026-05-07 04:21 | 33.48894 | -116.21562 | 34984 ft | 462 kts | 86° |
| 2026-05-07 04:21 | 33.48770 | -116.13888 | 34979 ft | 461 kts | 86° |
| 2026-05-07 04:22 | 33.48710 | -116.06225 | 34973 ft | 458 kts | 83° |
| 2026-05-07 04:22 | 33.49925 | -115.98845 | 34972 ft | 449 kts | 68° |
| 2026-05-07 04:23 | 33.51978 | -115.91831 | 34972 ft | 448 kts | 68° |
| 2026-05-07 04:23 | 33.54042 | -115.84802 | 34962 ft | 446 kts | 68° |
| 2026-05-07 04:24 | 33.56094 | -115.77778 | 34958 ft | 446 kts | 68° |
| 2026-05-07 04:24 | 33.58137 | -115.70757 | 34961 ft | 447 kts | 68° |
| 2026-05-07 04:25 | 33.60177 | -115.63726 | 34967 ft | 446 kts | 68° |
| 2026-05-07 04:25 | 33.61583 | -115.56507 | 34959 ft | 452 kts | 82° |
| 2026-05-07 04:26 | 33.61628 | -115.48924 | 34958 ft | 456 kts | 87° |
| 2026-05-07 04:26 | 33.61405 | -115.41307 | 34963 ft | 457 kts | 88° |
| 2026-05-07 04:27 | 33.61171 | -115.33739 | 34958 ft | 457 kts | 88° |
| 2026-05-07 04:27 | 33.60965 | -115.26108 | 34953 ft | 458 kts | 88° |
| 2026-05-07 04:28 | 33.60768 | -115.18467 | 34954 ft | 458 kts | 88° |
| 2026-05-07 04:28 | 33.60567 | -115.10836 | 34955 ft | 458 kts | 88° |
| 2026-05-07 04:29 | 33.60361 | -115.03247 | 34957 ft | 458 kts | 88° |
| 2026-05-07 04:29 | 33.60149 | -114.95611 | 34966 ft | 458 kts | 88° |
| 2026-05-07 04:30 | 33.59932 | -114.87969 | 34968 ft | 458 kts | 88° |
| 2026-05-07 04:30 | 33.59710 | -114.80338 | 34970 ft | 458 kts | 88° |
| 2026-05-07 04:31 | 33.59449 | -114.72762 | 34977 ft | 459 kts | 90° |
| 2026-05-07 04:31 | 33.58771 | -114.65133 | 34976 ft | 461 kts | 92° |
| 2026-05-07 04:32 | 33.57981 | -114.57500 | 34962 ft | 461 kts | 92° |
| 2026-05-07 04:32 | 33.57246 | -114.49873 | 34953 ft | 460 kts | 92° |
| 2026-05-07 04:33 | 33.56549 | -114.42246 | 34963 ft | 460 kts | 92° |
| 2026-05-07 04:33 | 33.55862 | -114.34661 | 34937 ft | 461 kts | 92° |
| 2026-05-07 04:34 | 33.55164 | -114.27024 | 34951 ft | 461 kts | 92° |
| 2026-05-07 04:34 | 33.54460 | -114.19374 | 34958 ft | 462 kts | 92° |
| 2026-05-07 04:35 | 33.53754 | -114.11780 | 34958 ft | 462 kts | 92° |
| 2026-05-07 04:35 | 33.53039 | -114.04137 | 34957 ft | 462 kts | 92° |
| 2026-05-07 04:36 | 33.52318 | -113.96483 | 34968 ft | 462 kts | 93° |
| 2026-05-07 04:36 | 33.51593 | -113.88838 | 34957 ft | 462 kts | 93° |
| 2026-05-07 04:37 | 33.50858 | -113.81197 | 34975 ft | 462 kts | 93° |
| 2026-05-07 04:37 | 33.50131 | -113.73606 | 34970 ft | 462 kts | 93° |
| 2026-05-07 04:38 | 33.49393 | -113.65966 | 34986 ft | 461 kts | 93° |
| 2026-05-07 04:38 | 33.48650 | -113.58331 | 34975 ft | 461 kts | 93° |
| 2026-05-07 04:39 | 33.47902 | -113.50695 | 34975 ft | 462 kts | 93° |
| 2026-05-07 04:39 | 33.47154 | -113.43120 | 34948 ft | 461 kts | 93° |
| 2026-05-07 04:40 | 33.46436 | -113.35483 | 34955 ft | 461 kts | 90° |
| 2026-05-07 04:40 | 33.46204 | -113.27822 | 34945 ft | 460 kts | 88° |
| 2026-05-07 04:41 | 33.46065 | -113.20156 | 34945 ft | 460 kts | 88° |
| 2026-05-07 04:41 | 33.45939 | -113.12554 | 34945 ft | 460 kts | 88° |
| 2026-05-07 04:42 | 33.45801 | -113.04892 | 34958 ft | 462 kts | 89° |
| 2026-05-07 04:42 | 33.45654 | -112.97182 | 34973 ft | 463 kts | 89° |
| 2026-05-07 04:43 | 33.45499 | -112.89474 | 34990 ft | 463 kts | 89° |
| 2026-05-07 04:43 | 33.45341 | -112.81812 | 35009 ft | 463 kts | 89° |
| 2026-05-07 04:44 | 33.45178 | -112.74100 | 35016 ft | 464 kts | 89° |
| 2026-05-07 04:44 | 33.45009 | -112.66363 | 35018 ft | 466 kts | 89° |
| 2026-05-07 04:45 | 33.44834 | -112.58611 | 35018 ft | 466 kts | 89° |
| 2026-05-07 04:45 | 33.44656 | -112.50865 | 34999 ft | 465 kts | 89° |
| 2026-05-07 04:46 | 33.44474 | -112.43165 | 34995 ft | 466 kts | 90° |
| 2026-05-07 04:46 | 33.44286 | -112.35364 | 35000 ft | 470 kts | 90° |
| 2026-05-07 04:47 | 33.44090 | -112.27540 | 34998 ft | 471 kts | 90° |
| 2026-05-07 04:47 | 33.43889 | -112.19704 | 34949 ft | 471 kts | 90° |